sensor_id;sensor_type;location;lat;lon;timestamp;P1;durP1;ratioP1;P2;durP2;ratioP2
77948;SDS011;67146;51.236;-0.336;2023-05-07T00:01:45;8.93;;;3.90;;
77948;SDS011;67146;51.236;-0.336;2023-05-07T00:04:11;9.07;;;2.50;;
77948;SDS011;67146;51.236;-0.336;2023-05-07T00:06:36;10.35;;;3.80;;
77948;SDS011;67146;51.236;-0.336;2023-05-07T00:09:02;8.85;;;2.63;;
77948;SDS011;67146;51.236;-0.336;2023-05-07T00:11:28;8.52;;;2.88;;
77948;SDS011;67146;51.236;-0.336;2023-05-07T00:13:54;9.48;;;3.10;;
77948;SDS011;67146;51.236;-0.336;2023-05-07T00:16:19;10.63;;;3.40;;
77948;SDS011;67146;51.236;-0.336;2023-05-07T00:18:45;12.25;;;3.42;;
77948;SDS011;67146;51.236;-0.336;2023-05-07T00:21:10;9.98;;;3.38;;
77948;SDS011;67146;51.236;-0.336;2023-05-07T00:23:36;12.35;;;4.35;;
77948;SDS011;67146;51.236;-0.336;2023-05-07T00:26:02;12.95;;;4.43;;
77948;SDS011;67146;51.236;-0.336;2023-05-07T00:28:28;9.80;;;3.75;;
77948;SDS011;67146;51.236;-0.336;2023-05-07T00:30:53;15.52;;;4.43;;
77948;SDS011;67146;51.236;-0.336;2023-05-07T00:33:19;15.90;;;4.50;;
77948;SDS011;67146;51.236;-0.336;2023-05-07T00:35:45;15.68;;;5.80;;
77948;SDS011;67146;51.236;-0.336;2023-05-07T00:38:11;12.40;;;4.97;;
77948;SDS011;67146;51.236;-0.336;2023-05-07T00:40:36;15.00;;;4.93;;
77948;SDS011;67146;51.236;-0.336;2023-05-07T00:43:02;12.85;;;5.10;;
77948;SDS011;67146;51.236;-0.336;2023-05-07T00:45:27;13.18;;;5.72;;
77948;SDS011;67146;51.236;-0.336;2023-05-07T00:47:57;11.98;;;5.10;;
77948;SDS011;67146;51.236;-0.336;2023-05-07T00:50:23;12.00;;;4.85;;
77948;SDS011;67146;51.236;-0.336;2023-05-07T00:52:49;17.80;;;5.00;;
77948;SDS011;67146;51.236;-0.336;2023-05-07T00:55:14;11.70;;;4.22;;
77948;SDS011;67146;51.236;-0.336;2023-05-07T00:57:40;16.25;;;5.78;;
77948;SDS011;67146;51.236;-0.336;2023-05-07T01:00:07;16.48;;;7.40;;
77948;SDS011;67146;51.236;-0.336;2023-05-07T01:02:40;16.83;;;6.47;;
77948;SDS011;67146;51.236;-0.336;2023-05-07T01:05:07;17.70;;;7.45;;
77948;SDS011;67146;51.236;-0.336;2023-05-07T01:07:34;21.50;;;8.15;;
77948;SDS011;67146;51.236;-0.336;2023-05-07T01:10:00;21.42;;;7.65;;
77948;SDS011;67146;51.236;-0.336;2023-05-07T01:12:26;19.90;;;7.78;;
77948;SDS011;67146;51.236;-0.336;2023-05-07T01:14:52;19.23;;;7.38;;
77948;SDS011;67146;51.236;-0.336;2023-05-07T01:17:18;19.40;;;7.55;;
77948;SDS011;67146;51.236;-0.336;2023-05-07T01:19:44;19.23;;;7.95;;
77948;SDS011;67146;51.236;-0.336;2023-05-07T01:22:09;19.65;;;7.38;;
77948;SDS011;67146;51.236;-0.336;2023-05-07T01:24:36;22.75;;;8.48;;
77948;SDS011;67146;51.236;-0.336;2023-05-07T01:27:02;19.98;;;8.00;;
77948;SDS011;67146;51.236;-0.336;2023-05-07T01:29:28;20.45;;;7.63;;
77948;SDS011;67146;51.236;-0.336;2023-05-07T01:31:54;22.05;;;7.63;;
77948;SDS011;67146;51.236;-0.336;2023-05-07T01:34:22;22.05;;;7.65;;
77948;SDS011;67146;51.236;-0.336;2023-05-07T01:36:50;20.73;;;6.95;;
77948;SDS011;67146;51.236;-0.336;2023-05-07T01:39:16;21.20;;;7.13;;
77948;SDS011;67146;51.236;-0.336;2023-05-07T01:41:42;12.63;;;5.38;;
77948;SDS011;67146;51.236;-0.336;2023-05-07T01:44:08;16.70;;;6.50;;
77948;SDS011;67146;51.236;-0.336;2023-05-07T01:46:35;16.80;;;6.15;;
77948;SDS011;67146;51.236;-0.336;2023-05-07T01:49:00;17.63;;;6.35;;
77948;SDS011;67146;51.236;-0.336;2023-05-07T01:51:26;17.95;;;6.85;;
77948;SDS011;67146;51.236;-0.336;2023-05-07T01:53:52;20.42;;;7.80;;
77948;SDS011;67146;51.236;-0.336;2023-05-07T01:56:18;17.23;;;6.80;;
77948;SDS011;67146;51.236;-0.336;2023-05-07T01:58:45;16.67;;;6.47;;
77948;SDS011;67146;51.236;-0.336;2023-05-07T02:01:12;16.33;;;7.28;;
77948;SDS011;67146;51.236;-0.336;2023-05-07T02:03:38;15.48;;;6.20;;
77948;SDS011;67146;51.236;-0.336;2023-05-07T02:06:03;17.35;;;7.25;;
77948;SDS011;67146;51.236;-0.336;2023-05-07T02:08:29;17.92;;;6.78;;
77948;SDS011;67146;51.236;-0.336;2023-05-07T02:10:55;19.40;;;7.20;;
77948;SDS011;67146;51.236;-0.336;2023-05-07T02:13:20;18.73;;;7.15;;
77948;SDS011;67146;51.236;-0.336;2023-05-07T02:15:47;23.45;;;8.13;;
77948;SDS011;67146;51.236;-0.336;2023-05-07T02:18:15;22.73;;;8.07;;
77948;SDS011;67146;51.236;-0.336;2023-05-07T02:20:42;23.10;;;8.70;;
77948;SDS011;67146;51.236;-0.336;2023-05-07T02:23:07;22.08;;;8.90;;
77948;SDS011;67146;51.236;-0.336;2023-05-07T02:25:33;24.67;;;8.45;;
77948;SDS011;67146;51.236;-0.336;2023-05-07T02:27:58;20.83;;;8.32;;
77948;SDS011;67146;51.236;-0.336;2023-05-07T02:30:24;20.25;;;7.28;;
77948;SDS011;67146;51.236;-0.336;2023-05-07T02:32:50;16.50;;;6.90;;
77948;SDS011;67146;51.236;-0.336;2023-05-07T02:35:16;20.45;;;7.57;;
77948;SDS011;67146;51.236;-0.336;2023-05-07T02:37:42;23.13;;;8.77;;
77948;SDS011;67146;51.236;-0.336;2023-05-07T02:40:07;24.40;;;8.30;;
77948;SDS011;67146;51.236;-0.336;2023-05-07T02:42:33;19.40;;;8.05;;
77948;SDS011;67146;51.236;-0.336;2023-05-07T02:44:59;18.25;;;7.38;;
77948;SDS011;67146;51.236;-0.336;2023-05-07T02:47:24;19.48;;;7.88;;
77948;SDS011;67146;51.236;-0.336;2023-05-07T02:49:53;21.65;;;8.15;;
77948;SDS011;67146;51.236;-0.336;2023-05-07T02:52:19;22.85;;;8.93;;
77948;SDS011;67146;51.236;-0.336;2023-05-07T02:54:44;25.70;;;8.88;;
77948;SDS011;67146;51.236;-0.336;2023-05-07T02:57:10;23.73;;;8.80;;
77948;SDS011;67146;51.236;-0.336;2023-05-07T02:59:35;27.58;;;9.77;;
77948;SDS011;67146;51.236;-0.336;2023-05-07T03:02:01;27.17;;;9.15;;
77948;SDS011;67146;51.236;-0.336;2023-05-07T03:04:26;28.65;;;9.38;;
77948;SDS011;67146;51.236;-0.336;2023-05-07T03:06:52;26.67;;;8.88;;
77948;SDS011;67146;51.236;-0.336;2023-05-07T03:09:17;26.40;;;9.07;;
77948;SDS011;67146;51.236;-0.336;2023-05-07T03:11:43;25.83;;;8.35;;
77948;SDS011;67146;51.236;-0.336;2023-05-07T03:14:08;26.67;;;8.75;;
77948;SDS011;67146;51.236;-0.336;2023-05-07T03:16:34;20.90;;;8.40;;
77948;SDS011;67146;51.236;-0.336;2023-05-07T03:18:59;23.85;;;8.70;;
77948;SDS011;67146;51.236;-0.336;2023-05-07T03:21:25;24.67;;;7.95;;
77948;SDS011;67146;51.236;-0.336;2023-05-07T03:23:51;23.77;;;8.45;;
77948;SDS011;67146;51.236;-0.336;2023-05-07T03:26:17;22.25;;;7.65;;
77948;SDS011;67146;51.236;-0.336;2023-05-07T03:28:42;18.83;;;7.57;;
77948;SDS011;67146;51.236;-0.336;2023-05-07T03:31:08;20.10;;;6.68;;
77948;SDS011;67146;51.236;-0.336;2023-05-07T03:33:33;21.10;;;7.72;;
77948;SDS011;67146;51.236;-0.336;2023-05-07T03:36:00;26.92;;;8.75;;
77948;SDS011;67146;51.236;-0.336;2023-05-07T03:38:25;20.73;;;7.85;;
77948;SDS011;67146;51.236;-0.336;2023-05-07T03:40:51;19.80;;;6.50;;
77948;SDS011;67146;51.236;-0.336;2023-05-07T03:43:16;21.83;;;7.05;;
77948;SDS011;67146;51.236;-0.336;2023-05-07T03:45:42;21.48;;;7.88;;
77948;SDS011;67146;51.236;-0.336;2023-05-07T03:48:07;23.33;;;8.35;;
77948;SDS011;67146;51.236;-0.336;2023-05-07T03:50:33;23.30;;;8.43;;
77948;SDS011;67146;51.236;-0.336;2023-05-07T03:52:58;24.08;;;8.77;;
77948;SDS011;67146;51.236;-0.336;2023-05-07T03:55:24;27.67;;;9.02;;
77948;SDS011;67146;51.236;-0.336;2023-05-07T04:00:34;24.90;;;8.15;;
77948;SDS011;67146;51.236;-0.336;2023-05-07T04:03:03;26.65;;;8.73;;
77948;SDS011;67146;51.236;-0.336;2023-05-07T04:05:29;28.13;;;8.43;;
77948;SDS011;67146;51.236;-0.336;2023-05-07T04:07:55;27.02;;;7.97;;
77948;SDS011;67146;51.236;-0.336;2023-05-07T04:10:22;22.80;;;7.45;;
77948;SDS011;67146;51.236;-0.336;2023-05-07T04:12:48;25.90;;;7.60;;
77948;SDS011;67146;51.236;-0.336;2023-05-07T04:15:13;24.48;;;7.60;;
77948;SDS011;67146;51.236;-0.336;2023-05-07T04:17:39;25.50;;;8.65;;
77948;SDS011;67146;51.236;-0.336;2023-05-07T04:20:06;33.90;;;9.90;;
77948;SDS011;67146;51.236;-0.336;2023-05-07T04:22:34;29.65;;;8.23;;
77948;SDS011;67146;51.236;-0.336;2023-05-07T04:24:59;27.27;;;8.20;;
77948;SDS011;67146;51.236;-0.336;2023-05-07T04:27:25;27.75;;;9.18;;
77948;SDS011;67146;51.236;-0.336;2023-05-07T04:29:51;26.02;;;7.47;;
77948;SDS011;67146;51.236;-0.336;2023-05-07T04:32:16;31.50;;;8.45;;
77948;SDS011;67146;51.236;-0.336;2023-05-07T04:34:42;27.23;;;7.68;;
77948;SDS011;67146;51.236;-0.336;2023-05-07T04:37:08;27.23;;;8.88;;
77948;SDS011;67146;51.236;-0.336;2023-05-07T04:39:33;24.85;;;8.73;;
77948;SDS011;67146;51.236;-0.336;2023-05-07T04:42:00;28.38;;;9.35;;
77948;SDS011;67146;51.236;-0.336;2023-05-07T04:44:25;28.30;;;8.43;;
77948;SDS011;67146;51.236;-0.336;2023-05-07T04:46:51;25.73;;;8.02;;
77948;SDS011;67146;51.236;-0.336;2023-05-07T04:49:16;24.42;;;8.40;;
77948;SDS011;67146;51.236;-0.336;2023-05-07T04:51:42;23.70;;;8.45;;
77948;SDS011;67146;51.236;-0.336;2023-05-07T04:54:08;25.38;;;7.65;;
77948;SDS011;67146;51.236;-0.336;2023-05-07T04:56:33;18.58;;;6.45;;
77948;SDS011;67146;51.236;-0.336;2023-05-07T04:58:59;22.00;;;6.80;;
77948;SDS011;67146;51.236;-0.336;2023-05-07T05:01:24;19.50;;;6.25;;
77948;SDS011;67146;51.236;-0.336;2023-05-07T05:03:50;21.52;;;6.93;;
77948;SDS011;67146;51.236;-0.336;2023-05-07T05:06:15;22.77;;;6.05;;
77948;SDS011;67146;51.236;-0.336;2023-05-07T05:08:41;21.58;;;6.75;;
77948;SDS011;67146;51.236;-0.336;2023-05-07T05:11:06;19.35;;;6.40;;
77948;SDS011;67146;51.236;-0.336;2023-05-07T05:13:31;19.45;;;5.95;;
77948;SDS011;67146;51.236;-0.336;2023-05-07T05:15:57;23.13;;;6.68;;
77948;SDS011;67146;51.236;-0.336;2023-05-07T05:18:22;20.95;;;6.03;;
77948;SDS011;67146;51.236;-0.336;2023-05-07T05:20:48;19.67;;;5.72;;
77948;SDS011;67146;51.236;-0.336;2023-05-07T05:23:13;19.52;;;5.82;;
77948;SDS011;67146;51.236;-0.336;2023-05-07T05:25:39;20.45;;;5.88;;
77948;SDS011;67146;51.236;-0.336;2023-05-07T05:28:05;21.42;;;6.55;;
77948;SDS011;67146;51.236;-0.336;2023-05-07T05:30:30;16.88;;;6.25;;
77948;SDS011;67146;51.236;-0.336;2023-05-07T05:32:56;18.73;;;5.38;;
77948;SDS011;67146;51.236;-0.336;2023-05-07T05:35:21;19.77;;;5.22;;
77948;SDS011;67146;51.236;-0.336;2023-05-07T05:37:46;21.15;;;5.85;;
77948;SDS011;67146;51.236;-0.336;2023-05-07T05:40:13;22.08;;;6.55;;
77948;SDS011;67146;51.236;-0.336;2023-05-07T05:42:38;24.15;;;7.47;;
77948;SDS011;67146;51.236;-0.336;2023-05-07T05:45:04;24.42;;;6.30;;
77948;SDS011;67146;51.236;-0.336;2023-05-07T05:47:31;17.55;;;6.35;;
77948;SDS011;67146;51.236;-0.336;2023-05-07T05:49:56;20.40;;;6.68;;
77948;SDS011;67146;51.236;-0.336;2023-05-07T05:52:21;19.23;;;6.43;;
77948;SDS011;67146;51.236;-0.336;2023-05-07T05:54:48;19.88;;;6.32;;
77948;SDS011;67146;51.236;-0.336;2023-05-07T05:57:14;17.88;;;5.78;;
77948;SDS011;67146;51.236;-0.336;2023-05-07T05:59:40;18.75;;;5.82;;
77948;SDS011;67146;51.236;-0.336;2023-05-07T06:02:05;18.13;;;5.82;;
77948;SDS011;67146;51.236;-0.336;2023-05-07T06:04:31;20.63;;;5.95;;
77948;SDS011;67146;51.236;-0.336;2023-05-07T06:06:57;19.95;;;6.10;;
77948;SDS011;67146;51.236;-0.336;2023-05-07T06:09:22;19.95;;;6.00;;
77948;SDS011;67146;51.236;-0.336;2023-05-07T06:11:48;20.58;;;6.55;;
77948;SDS011;67146;51.236;-0.336;2023-05-07T06:14:13;16.83;;;5.78;;
77948;SDS011;67146;51.236;-0.336;2023-05-07T06:16:39;22.75;;;6.13;;
77948;SDS011;67146;51.236;-0.336;2023-05-07T06:19:04;18.77;;;5.65;;
77948;SDS011;67146;51.236;-0.336;2023-05-07T06:21:30;16.35;;;5.13;;
77948;SDS011;67146;51.236;-0.336;2023-05-07T06:23:56;15.02;;;5.50;;
77948;SDS011;67146;51.236;-0.336;2023-05-07T06:26:21;17.73;;;5.95;;
77948;SDS011;67146;51.236;-0.336;2023-05-07T06:28:47;15.70;;;4.80;;
77948;SDS011;67146;51.236;-0.336;2023-05-07T06:31:16;20.25;;;6.13;;
77948;SDS011;67146;51.236;-0.336;2023-05-07T06:33:45;15.93;;;5.25;;
77948;SDS011;67146;51.236;-0.336;2023-05-07T06:36:11;16.05;;;5.10;;
77948;SDS011;67146;51.236;-0.336;2023-05-07T06:38:36;18.80;;;5.55;;
77948;SDS011;67146;51.236;-0.336;2023-05-07T06:41:01;17.20;;;4.90;;
77948;SDS011;67146;51.236;-0.336;2023-05-07T06:43:27;16.67;;;5.88;;
77948;SDS011;67146;51.236;-0.336;2023-05-07T06:45:52;15.80;;;4.93;;
77948;SDS011;67146;51.236;-0.336;2023-05-07T06:48:18;14.90;;;5.03;;
77948;SDS011;67146;51.236;-0.336;2023-05-07T06:50:43;16.13;;;4.97;;
77948;SDS011;67146;51.236;-0.336;2023-05-07T06:53:09;15.15;;;5.07;;
77948;SDS011;67146;51.236;-0.336;2023-05-07T06:55:34;15.98;;;4.93;;
77948;SDS011;67146;51.236;-0.336;2023-05-07T06:58:00;14.35;;;4.90;;
77948;SDS011;67146;51.236;-0.336;2023-05-07T07:00:28;11.60;;;4.07;;
77948;SDS011;67146;51.236;-0.336;2023-05-07T07:02:54;14.27;;;4.20;;
77948;SDS011;67146;51.236;-0.336;2023-05-07T07:05:20;15.23;;;4.70;;
77948;SDS011;67146;51.236;-0.336;2023-05-07T07:07:46;12.35;;;4.07;;
77948;SDS011;67146;51.236;-0.336;2023-05-07T07:10:18;12.25;;;3.88;;
77948;SDS011;67146;51.236;-0.336;2023-05-07T07:12:45;12.05;;;4.28;;
77948;SDS011;67146;51.236;-0.336;2023-05-07T07:15:10;10.73;;;4.03;;
77948;SDS011;67146;51.236;-0.336;2023-05-07T07:17:36;11.15;;;4.15;;
77948;SDS011;67146;51.236;-0.336;2023-05-07T07:20:01;14.85;;;4.22;;
77948;SDS011;67146;51.236;-0.336;2023-05-07T07:22:27;14.18;;;5.22;;
77948;SDS011;67146;51.236;-0.336;2023-05-07T07:24:53;13.07;;;4.47;;
77948;SDS011;67146;51.236;-0.336;2023-05-07T07:27:19;16.25;;;4.90;;
77948;SDS011;67146;51.236;-0.336;2023-05-07T07:29:44;14.43;;;5.30;;
77948;SDS011;67146;51.236;-0.336;2023-05-07T07:32:10;13.05;;;4.88;;
77948;SDS011;67146;51.236;-0.336;2023-05-07T07:34:35;11.60;;;4.63;;
77948;SDS011;67146;51.236;-0.336;2023-05-07T07:37:01;14.23;;;4.93;;
77948;SDS011;67146;51.236;-0.336;2023-05-07T07:39:30;16.50;;;5.55;;
77948;SDS011;67146;51.236;-0.336;2023-05-07T07:41:56;14.95;;;5.78;;
77948;SDS011;67146;51.236;-0.336;2023-05-07T07:44:21;15.68;;;5.65;;
77948;SDS011;67146;51.236;-0.336;2023-05-07T07:46:47;15.35;;;5.35;;
77948;SDS011;67146;51.236;-0.336;2023-05-07T07:49:12;15.38;;;5.53;;
77948;SDS011;67146;51.236;-0.336;2023-05-07T07:51:38;15.32;;;5.65;;
77948;SDS011;67146;51.236;-0.336;2023-05-07T07:54:03;15.85;;;5.72;;
77948;SDS011;67146;51.236;-0.336;2023-05-07T07:56:29;15.20;;;6.18;;
77948;SDS011;67146;51.236;-0.336;2023-05-07T08:01:29;13.93;;;5.80;;
77948;SDS011;67146;51.236;-0.336;2023-05-07T08:03:55;14.13;;;5.15;;
77948;SDS011;67146;51.236;-0.336;2023-05-07T08:06:22;14.05;;;5.30;;
77948;SDS011;67146;51.236;-0.336;2023-05-07T08:08:48;15.60;;;5.75;;
77948;SDS011;67146;51.236;-0.336;2023-05-07T08:11:13;15.57;;;4.82;;
77948;SDS011;67146;51.236;-0.336;2023-05-07T08:13:39;12.90;;;5.10;;
77948;SDS011;67146;51.236;-0.336;2023-05-07T08:16:05;10.52;;;4.43;;
77948;SDS011;67146;51.236;-0.336;2023-05-07T08:18:30;12.27;;;4.72;;
77948;SDS011;67146;51.236;-0.336;2023-05-07T08:20:55;11.95;;;5.38;;
77948;SDS011;67146;51.236;-0.336;2023-05-07T08:26:45;11.55;;;4.45;;
77948;SDS011;67146;51.236;-0.336;2023-05-07T08:29:11;11.68;;;4.30;;
77948;SDS011;67146;51.236;-0.336;2023-05-07T08:31:36;10.73;;;4.15;;
77948;SDS011;67146;51.236;-0.336;2023-05-07T08:34:03;10.07;;;4.07;;
77948;SDS011;67146;51.236;-0.336;2023-05-07T08:36:29;8.73;;;3.67;;
77948;SDS011;67146;51.236;-0.336;2023-05-07T08:44:32;8.50;;;3.40;;
77948;SDS011;67146;51.236;-0.336;2023-05-07T08:46:59;9.55;;;3.53;;
77948;SDS011;67146;51.236;-0.336;2023-05-07T08:49:26;9.35;;;3.22;;
77948;SDS011;67146;51.236;-0.336;2023-05-07T08:51:52;7.97;;;3.33;;
77948;SDS011;67146;51.236;-0.336;2023-05-07T08:54:18;9.52;;;3.30;;
77948;SDS011;67146;51.236;-0.336;2023-05-07T08:56:44;7.65;;;3.22;;
77948;SDS011;67146;51.236;-0.336;2023-05-07T08:59:10;6.57;;;2.78;;
77948;SDS011;67146;51.236;-0.336;2023-05-07T09:01:35;7.60;;;2.90;;
77948;SDS011;67146;51.236;-0.336;2023-05-07T09:04:00;7.27;;;2.73;;
77948;SDS011;67146;51.236;-0.336;2023-05-07T09:06:26;6.72;;;2.65;;
77948;SDS011;67146;51.236;-0.336;2023-05-07T09:08:52;6.73;;;2.60;;
77948;SDS011;67146;51.236;-0.336;2023-05-07T09:11:22;6.25;;;2.63;;
77948;SDS011;67146;51.236;-0.336;2023-05-07T09:13:48;7.00;;;2.70;;
77948;SDS011;67146;51.236;-0.336;2023-05-07T09:16:15;6.97;;;2.90;;
77948;SDS011;67146;51.236;-0.336;2023-05-07T09:18:43;5.43;;;2.50;;
77948;SDS011;67146;51.236;-0.336;2023-05-07T09:21:10;6.13;;;2.83;;
77948;SDS011;67146;51.236;-0.336;2023-05-07T09:23:36;6.03;;;2.65;;
77948;SDS011;67146;51.236;-0.336;2023-05-07T09:26:01;6.13;;;2.70;;
77948;SDS011;67146;51.236;-0.336;2023-05-07T09:28:27;5.22;;;2.47;;
77948;SDS011;67146;51.236;-0.336;2023-05-07T09:30:52;7.17;;;2.37;;
77948;SDS011;67146;51.236;-0.336;2023-05-07T09:33:17;6.40;;;2.40;;
77948;SDS011;67146;51.236;-0.336;2023-05-07T09:35:43;6.93;;;2.47;;
77948;SDS011;67146;51.236;-0.336;2023-05-07T09:38:08;6.70;;;2.50;;
77948;SDS011;67146;51.236;-0.336;2023-05-07T09:40:33;5.95;;;2.75;;
77948;SDS011;67146;51.236;-0.336;2023-05-07T09:43:11;5.50;;;1.97;;
77948;SDS011;67146;51.236;-0.336;2023-05-07T09:45:38;6.25;;;2.20;;
77948;SDS011;67146;51.236;-0.336;2023-05-07T09:48:04;5.35;;;2.33;;
77948;SDS011;67146;51.236;-0.336;2023-05-07T09:50:38;5.15;;;2.15;;
77948;SDS011;67146;51.236;-0.336;2023-05-07T09:53:10;4.50;;;1.65;;
77948;SDS011;67146;51.236;-0.336;2023-05-07T09:55:35;5.95;;;1.88;;
77948;SDS011;67146;51.236;-0.336;2023-05-07T09:58:01;6.30;;;1.92;;
77948;SDS011;67146;51.236;-0.336;2023-05-07T10:00:27;4.97;;;1.83;;
77948;SDS011;67146;51.236;-0.336;2023-05-07T10:02:53;4.65;;;1.58;;
77948;SDS011;67146;51.236;-0.336;2023-05-07T10:05:22;4.78;;;1.80;;
77948;SDS011;67146;51.236;-0.336;2023-05-07T10:07:48;5.03;;;1.83;;
77948;SDS011;67146;51.236;-0.336;2023-05-07T10:10:14;4.70;;;2.10;;
77948;SDS011;67146;51.236;-0.336;2023-05-07T10:12:40;5.95;;;2.00;;
77948;SDS011;67146;51.236;-0.336;2023-05-07T10:15:06;5.00;;;2.28;;
77948;SDS011;67146;51.236;-0.336;2023-05-07T10:17:36;5.30;;;1.75;;
77948;SDS011;67146;51.236;-0.336;2023-05-07T10:20:02;4.15;;;1.40;;
77948;SDS011;67146;51.236;-0.336;2023-05-07T10:22:30;4.10;;;1.38;;
77948;SDS011;67146;51.236;-0.336;2023-05-07T10:24:56;5.10;;;1.77;;
77948;SDS011;67146;51.236;-0.336;2023-05-07T10:27:24;4.20;;;1.50;;
77948;SDS011;67146;51.236;-0.336;2023-05-07T10:29:57;5.03;;;1.98;;
77948;SDS011;67146;51.236;-0.336;2023-05-07T10:32:42;4.75;;;1.55;;
77948;SDS011;67146;51.236;-0.336;2023-05-07T10:35:16;4.68;;;1.75;;
77948;SDS011;67146;51.236;-0.336;2023-05-07T10:37:51;5.40;;;1.70;;
77948;SDS011;67146;51.236;-0.336;2023-05-07T10:40:17;4.50;;;1.70;;
77948;SDS011;67146;51.236;-0.336;2023-05-07T10:43:05;5.10;;;1.73;;
77948;SDS011;67146;51.236;-0.336;2023-05-07T10:45:30;4.72;;;1.63;;
77948;SDS011;67146;51.236;-0.336;2023-05-07T10:48:14;4.22;;;1.50;;
77948;SDS011;67146;51.236;-0.336;2023-05-07T10:50:41;4.93;;;2.08;;
77948;SDS011;67146;51.236;-0.336;2023-05-07T10:55:41;4.35;;;1.73;;
77948;SDS011;67146;51.236;-0.336;2023-05-07T11:00:55;4.45;;;1.60;;
77948;SDS011;67146;51.236;-0.336;2023-05-07T11:03:26;3.90;;;1.73;;
77948;SDS011;67146;51.236;-0.336;2023-05-07T11:06:12;5.53;;;1.83;;
77948;SDS011;67146;51.236;-0.336;2023-05-07T11:11:16;4.60;;;1.75;;
77948;SDS011;67146;51.236;-0.336;2023-05-07T11:13:42;4.23;;;1.70;;
77948;SDS011;67146;51.236;-0.336;2023-05-07T11:16:19;4.60;;;1.98;;
77948;SDS011;67146;51.236;-0.336;2023-05-07T11:18:47;4.25;;;1.40;;
77948;SDS011;67146;51.236;-0.336;2023-05-07T11:21:16;4.03;;;1.45;;
77948;SDS011;67146;51.236;-0.336;2023-05-07T11:23:57;4.60;;;1.13;;
77948;SDS011;67146;51.236;-0.336;2023-05-07T11:26:23;4.82;;;2.10;;
77948;SDS011;67146;51.236;-0.336;2023-05-07T11:28:49;4.07;;;1.60;;
77948;SDS011;67146;51.236;-0.336;2023-05-07T11:31:15;4.05;;;1.63;;
77948;SDS011;67146;51.236;-0.336;2023-05-07T11:33:46;4.57;;;1.63;;
77948;SDS011;67146;51.236;-0.336;2023-05-07T11:36:11;4.15;;;1.30;;
77948;SDS011;67146;51.236;-0.336;2023-05-07T11:38:37;4.57;;;1.63;;
77948;SDS011;67146;51.236;-0.336;2023-05-07T11:41:03;4.30;;;1.75;;
77948;SDS011;67146;51.236;-0.336;2023-05-07T11:43:31;5.40;;;2.03;;
77948;SDS011;67146;51.236;-0.336;2023-05-07T11:46:18;4.50;;;2.20;;
77948;SDS011;67146;51.236;-0.336;2023-05-07T11:48:43;4.05;;;1.42;;
77948;SDS011;67146;51.236;-0.336;2023-05-07T11:51:08;3.90;;;1.42;;
77948;SDS011;67146;51.236;-0.336;2023-05-07T11:53:40;4.60;;;1.98;;
77948;SDS011;67146;51.236;-0.336;2023-05-07T11:58:33;4.45;;;1.55;;
77948;SDS011;67146;51.236;-0.336;2023-05-07T12:00:58;4.53;;;1.55;;
77948;SDS011;67146;51.236;-0.336;2023-05-07T12:03:24;4.13;;;1.37;;
77948;SDS011;67146;51.236;-0.336;2023-05-07T12:05:49;4.30;;;1.08;;
77948;SDS011;67146;51.236;-0.336;2023-05-07T12:08:15;3.97;;;1.38;;
77948;SDS011;67146;51.236;-0.336;2023-05-07T12:10:44;4.13;;;1.52;;
77948;SDS011;67146;51.236;-0.336;2023-05-07T12:15:45;5.35;;;1.45;;
77948;SDS011;67146;51.236;-0.336;2023-05-07T12:18:11;4.65;;;1.13;;
77948;SDS011;67146;51.236;-0.336;2023-05-07T12:20:37;5.18;;;1.63;;
77948;SDS011;67146;51.236;-0.336;2023-05-07T12:23:02;4.40;;;1.50;;
77948;SDS011;67146;51.236;-0.336;2023-05-07T12:25:31;4.68;;;1.25;;
77948;SDS011;67146;51.236;-0.336;2023-05-07T12:28:00;4.90;;;1.55;;
77948;SDS011;67146;51.236;-0.336;2023-05-07T12:30:26;7.32;;;2.10;;
77948;SDS011;67146;51.236;-0.336;2023-05-07T12:32:54;3.58;;;1.33;;
77948;SDS011;67146;51.236;-0.336;2023-05-07T12:35:29;6.90;;;2.65;;
77948;SDS011;67146;51.236;-0.336;2023-05-07T12:37:56;5.57;;;2.00;;
77948;SDS011;67146;51.236;-0.336;2023-05-07T12:42:49;4.33;;;1.87;;
77948;SDS011;67146;51.236;-0.336;2023-05-07T12:45:19;4.50;;;1.80;;
77948;SDS011;67146;51.236;-0.336;2023-05-07T12:47:45;5.73;;;1.83;;
77948;SDS011;67146;51.236;-0.336;2023-05-07T12:50:10;5.30;;;1.73;;
77948;SDS011;67146;51.236;-0.336;2023-05-07T12:52:36;5.15;;;1.67;;
77948;SDS011;67146;51.236;-0.336;2023-05-07T12:55:05;4.38;;;1.75;;
77948;SDS011;67146;51.236;-0.336;2023-05-07T12:57:37;4.65;;;1.38;;
77948;SDS011;67146;51.236;-0.336;2023-05-07T13:00:08;4.35;;;1.27;;
77948;SDS011;67146;51.236;-0.336;2023-05-07T13:02:37;5.28;;;1.52;;
77948;SDS011;67146;51.236;-0.336;2023-05-07T13:05:03;5.35;;;1.33;;
77948;SDS011;67146;51.236;-0.336;2023-05-07T13:07:32;4.80;;;1.38;;
77948;SDS011;67146;51.236;-0.336;2023-05-07T13:10:01;4.53;;;1.38;;
77948;SDS011;67146;51.236;-0.336;2023-05-07T13:12:27;4.32;;;1.40;;
77948;SDS011;67146;51.236;-0.336;2023-05-07T13:14:52;3.03;;;0.85;;
77948;SDS011;67146;51.236;-0.336;2023-05-07T13:19:46;4.70;;;1.20;;
77948;SDS011;67146;51.236;-0.336;2023-05-07T13:22:11;3.83;;;1.13;;
77948;SDS011;67146;51.236;-0.336;2023-05-07T13:24:39;3.80;;;1.13;;
77948;SDS011;67146;51.236;-0.336;2023-05-07T13:27:11;3.80;;;1.10;;
77948;SDS011;67146;51.236;-0.336;2023-05-07T13:29:36;3.92;;;1.48;;
77948;SDS011;67146;51.236;-0.336;2023-05-07T13:32:01;11.77;;;1.20;;
77948;SDS011;67146;51.236;-0.336;2023-05-07T13:34:27;4.40;;;1.17;;
77948;SDS011;67146;51.236;-0.336;2023-05-07T13:36:53;3.72;;;1.33;;
77948;SDS011;67146;51.236;-0.336;2023-05-07T13:39:18;4.20;;;1.17;;
77948;SDS011;67146;51.236;-0.336;2023-05-07T13:41:43;4.10;;;1.40;;
77948;SDS011;67146;51.236;-0.336;2023-05-07T13:44:08;4.33;;;0.93;;
77948;SDS011;67146;51.236;-0.336;2023-05-07T13:46:34;5.80;;;1.23;;
77948;SDS011;67146;51.236;-0.336;2023-05-07T13:51:31;3.33;;;1.03;;
77948;SDS011;67146;51.236;-0.336;2023-05-07T13:56:23;3.88;;;0.65;;
77948;SDS011;67146;51.236;-0.336;2023-05-07T13:58:48;4.20;;;1.23;;
77948;SDS011;67146;51.236;-0.336;2023-05-07T14:01:14;4.10;;;0.90;;
77948;SDS011;67146;51.236;-0.336;2023-05-07T14:03:39;3.13;;;0.85;;
77948;SDS011;67146;51.236;-0.336;2023-05-07T14:06:05;3.88;;;0.95;;
77948;SDS011;67146;51.236;-0.336;2023-05-07T14:08:30;6.85;;;0.90;;
77948;SDS011;67146;51.236;-0.336;2023-05-07T14:10:55;6.93;;;0.80;;
77948;SDS011;67146;51.236;-0.336;2023-05-07T14:13:21;3.97;;;0.80;;
77948;SDS011;67146;51.236;-0.336;2023-05-07T14:15:46;4.35;;;0.90;;
77948;SDS011;67146;51.236;-0.336;2023-05-07T14:18:13;3.70;;;0.77;;
77948;SDS011;67146;51.236;-0.336;2023-05-07T14:20:38;3.90;;;1.08;;
77948;SDS011;67146;51.236;-0.336;2023-05-07T14:23:04;3.70;;;1.43;;
77948;SDS011;67146;51.236;-0.336;2023-05-07T14:25:29;4.18;;;1.02;;
77948;SDS011;67146;51.236;-0.336;2023-05-07T14:27:55;3.25;;;0.50;;
77948;SDS011;67146;51.236;-0.336;2023-05-07T14:30:20;4.72;;;0.93;;
77948;SDS011;67146;51.236;-0.336;2023-05-07T14:32:47;4.28;;;1.23;;
77948;SDS011;67146;51.236;-0.336;2023-05-07T14:35:12;3.10;;;0.55;;
77948;SDS011;67146;51.236;-0.336;2023-05-07T14:37:37;4.03;;;1.00;;
77948;SDS011;67146;51.236;-0.336;2023-05-07T14:40:03;3.80;;;0.83;;
77948;SDS011;67146;51.236;-0.336;2023-05-07T14:42:28;3.15;;;0.73;;
77948;SDS011;67146;51.236;-0.336;2023-05-07T14:44:54;3.25;;;0.70;;
77948;SDS011;67146;51.236;-0.336;2023-05-07T14:47:19;3.20;;;0.60;;
77948;SDS011;67146;51.236;-0.336;2023-05-07T14:49:44;3.87;;;0.67;;
77948;SDS011;67146;51.236;-0.336;2023-05-07T14:52:10;3.33;;;0.83;;
77948;SDS011;67146;51.236;-0.336;2023-05-07T14:54:36;2.95;;;0.45;;
77948;SDS011;67146;51.236;-0.336;2023-05-07T14:57:02;3.53;;;0.73;;
77948;SDS011;67146;51.236;-0.336;2023-05-07T14:59:27;6.28;;;0.82;;